sensor_id;sensor_type;location;lat;lon;timestamp;pressure;altitude;pressure_sealevel;temperature;humidity
70343;BME280;57767;42.068;24.752;2023-04-05T00:00:05;98153.06;;;6.57;61.03
70343;BME280;57767;42.068;24.752;2023-04-05T00:01:12;98150.03;;;6.54;61.10
70343;BME280;57767;42.068;24.752;2023-04-05T00:02:14;98136.50;;;6.50;61.43
70343;BME280;57767;42.068;24.752;2023-04-05T00:03:19;98142.53;;;6.51;62.10
70343;BME280;57767;42.068;24.752;2023-04-05T00:04:21;98153.66;;;6.59;61.55
70343;BME280;57767;42.068;24.752;2023-04-05T00:05:25;98148.63;;;6.58;61.67
70343;BME280;57767;42.068;24.752;2023-04-05T00:06:35;98139.72;;;6.52;61.50
70343;BME280;57767;42.068;24.752;2023-04-05T00:07:39;98155.88;;;6.56;61.90
70343;BME280;57767;42.068;24.752;2023-04-05T00:08:41;98147.22;;;6.55;61.81
70343;BME280;57767;42.068;24.752;2023-04-05T00:09:44;98151.44;;;6.56;61.59
70343;BME280;57767;42.068;24.752;2023-04-05T00:10:47;98143.78;;;6.61;61.51
70343;BME280;57767;42.068;24.752;2023-04-05T00:11:48;98159.94;;;6.58;61.27
70343;BME280;57767;42.068;24.752;2023-04-05T00:12:50;98153.44;;;6.54;62.04
70343;BME280;57767;42.068;24.752;2023-04-05T00:13:52;98153.84;;;6.51;61.31
70343;BME280;57767;42.068;24.752;2023-04-05T00:14:54;98148.22;;;6.54;62.25
70343;BME280;57767;42.068;24.752;2023-04-05T00:15:56;98146.97;;;6.50;62.03
70343;BME280;57767;42.068;24.752;2023-04-05T00:16:58;98148.00;;;6.49;61.76
70343;BME280;57767;42.068;24.752;2023-04-05T00:18:00;98149.19;;;6.46;61.56
70343;BME280;57767;42.068;24.752;2023-04-05T00:19:04;98147.59;;;6.52;62.40
70343;BME280;57767;42.068;24.752;2023-04-05T00:20:06;98143.56;;;6.50;61.95
70343;BME280;57767;42.068;24.752;2023-04-05T00:21:08;98146.97;;;6.50;61.84
70343;BME280;57767;42.068;24.752;2023-04-05T00:22:10;98145.75;;;6.46;62.20
70343;BME280;57767;42.068;24.752;2023-04-05T00:23:12;98140.94;;;6.43;62.33
70343;BME280;57767;42.068;24.752;2023-04-05T00:24:15;98141.31;;;6.40;62.14
70343;BME280;57767;42.068;24.752;2023-04-05T00:25:17;98139.94;;;6.44;62.36
70343;BME280;57767;42.068;24.752;2023-04-05T00:26:19;98150.00;;;6.40;62.05
70343;BME280;57767;42.068;24.752;2023-04-05T00:27:22;98149.59;;;6.43;62.03
70343;BME280;57767;42.068;24.752;2023-04-05T00:28:23;98154.84;;;6.43;61.82
70343;BME280;57767;42.068;24.752;2023-04-05T00:29:25;98150.41;;;6.44;62.41
70343;BME280;57767;42.068;24.752;2023-04-05T00:30:27;98155.03;;;6.42;61.42
70343;BME280;57767;42.068;24.752;2023-04-05T00:31:29;98159.06;;;6.38;61.30
70343;BME280;57767;42.068;24.752;2023-04-05T00:32:31;98142.50;;;6.31;60.82
70343;BME280;57767;42.068;24.752;2023-04-05T00:33:33;98163.50;;;6.37;61.38
70343;BME280;57767;42.068;24.752;2023-04-05T00:34:35;98154.19;;;6.35;60.95
70343;BME280;57767;42.068;24.752;2023-04-05T00:35:37;98149.78;;;6.35;61.52
70343;BME280;57767;42.068;24.752;2023-04-05T00:36:39;98172.97;;;6.32;61.69
70343;BME280;57767;42.068;24.752;2023-04-05T00:37:41;98161.06;;;6.29;61.69
70343;BME280;57767;42.068;24.752;2023-04-05T00:38:44;98172.34;;;6.30;61.80
70343;BME280;57767;42.068;24.752;2023-04-05T00:39:46;98156.19;;;6.26;62.71
70343;BME280;57767;42.068;24.752;2023-04-05T00:40:48;98157.63;;;6.29;62.28
70343;BME280;57767;42.068;24.752;2023-04-05T00:41:49;98169.13;;;6.34;62.66
70343;BME280;57767;42.068;24.752;2023-04-05T00:42:51;98153.00;;;6.31;62.79
70343;BME280;57767;42.068;24.752;2023-04-05T00:43:53;98165.91;;;6.32;61.90
70343;BME280;57767;42.068;24.752;2023-04-05T00:44:55;98155.63;;;6.31;62.35
70343;BME280;57767;42.068;24.752;2023-04-05T00:45:57;98162.50;;;6.32;61.71
70343;BME280;57767;42.068;24.752;2023-04-05T00:47:08;98158.44;;;6.29;61.82
70343;BME280;57767;42.068;24.752;2023-04-05T00:48:10;98163.88;;;6.28;62.18
70343;BME280;57767;42.068;24.752;2023-04-05T00:49:12;98154.59;;;6.25;61.79
70343;BME280;57767;42.068;24.752;2023-04-05T00:50:15;98157.00;;;6.27;61.64
70343;BME280;57767;42.068;24.752;2023-04-05T00:51:17;98161.06;;;6.29;61.97
70343;BME280;57767;42.068;24.752;2023-04-05T00:52:20;98162.25;;;6.27;62.55
70343;BME280;57767;42.068;24.752;2023-04-05T00:53:24;98150.97;;;6.26;62.05
70343;BME280;57767;42.068;24.752;2023-04-05T00:54:28;98161.25;;;6.28;62.24
70343;BME280;57767;42.068;24.752;2023-04-05T00:55:32;98168.28;;;6.21;61.92
70343;BME280;57767;42.068;24.752;2023-04-05T00:56:35;98164.22;;;6.11;62.56
70343;BME280;57767;42.068;24.752;2023-04-05T00:57:37;98151.72;;;6.14;62.21
70343;BME280;57767;42.068;24.752;2023-04-05T00:58:39;98160.63;;;6.19;62.78
70343;BME280;57767;42.068;24.752;2023-04-05T00:59:43;98159.81;;;6.19;62.71
70343;BME280;57767;42.068;24.752;2023-04-05T01:02:00;98151.34;;;6.17;61.63
70343;BME280;57767;42.068;24.752;2023-04-05T01:03:03;98167.88;;;6.17;62.36
70343;BME280;57767;42.068;24.752;2023-04-05T01:04:05;98159.22;;;6.17;62.15
70343;BME280;57767;42.068;24.752;2023-04-05T01:05:20;98168.88;;;6.16;62.79
70343;BME280;57767;42.068;24.752;2023-04-05T01:07:58;98162.22;;;6.14;62.50
70343;BME280;57767;42.068;24.752;2023-04-05T01:10:27;98167.47;;;6.14;62.46
70343;BME280;57767;42.068;24.752;2023-04-05T01:11:32;98164.00;;;6.06;62.16
70343;BME280;57767;42.068;24.752;2023-04-05T01:12:36;98161.59;;;6.05;61.98
70343;BME280;57767;42.068;24.752;2023-04-05T01:13:39;98162.41;;;6.05;62.25
70343;BME280;57767;42.068;24.752;2023-04-05T01:14:50;98159.59;;;6.07;62.24
70343;BME280;57767;42.068;24.752;2023-04-05T01:15:52;98162.59;;;6.04;62.85
70343;BME280;57767;42.068;24.752;2023-04-05T01:16:54;98158.97;;;6.05;62.91
70343;BME280;57767;42.068;24.752;2023-04-05T01:17:59;98178.13;;;6.05;62.50
70343;BME280;57767;42.068;24.752;2023-04-05T01:19:04;98170.25;;;6.05;62.50
70343;BME280;57767;42.068;24.752;2023-04-05T01:20:09;98172.88;;;6.05;62.16
70343;BME280;57767;42.068;24.752;2023-04-05T01:21:41;98160.97;;;6.03;61.82
70343;BME280;57767;42.068;24.752;2023-04-05T01:23:27;98175.44;;;5.99;62.40
70343;BME280;57767;42.068;24.752;2023-04-05T01:30:39;98181.28;;;5.94;62.14
70343;BME280;57767;42.068;24.752;2023-04-05T01:31:49;98177.88;;;5.94;62.75
70343;BME280;57767;42.068;24.752;2023-04-05T01:34:33;98168.56;;;5.91;62.47
70343;BME280;57767;42.068;24.752;2023-04-05T01:36:00;98180.88;;;5.91;62.61
70343;BME280;57767;42.068;24.752;2023-04-05T01:37:12;98184.09;;;5.93;62.84
70343;BME280;57767;42.068;24.752;2023-04-05T01:38:18;98192.78;;;5.93;63.34
70343;BME280;57767;42.068;24.752;2023-04-05T01:39:23;98179.44;;;5.88;62.30
70343;BME280;57767;42.068;24.752;2023-04-05T01:40:27;98181.69;;;5.91;63.30
70343;BME280;57767;42.068;24.752;2023-04-05T01:41:30;98169.78;;;5.89;62.87
70343;BME280;57767;42.068;24.752;2023-04-05T01:42:32;98172.19;;;5.90;62.01
70343;BME280;57767;42.068;24.752;2023-04-05T01:43:34;98170.50;;;5.83;62.54
70343;BME280;57767;42.068;24.752;2023-04-05T01:44:36;98182.69;;;5.90;63.11
70343;BME280;57767;42.068;24.752;2023-04-05T01:45:38;98185.91;;;5.92;62.84
70343;BME280;57767;42.068;24.752;2023-04-05T01:46:39;98179.69;;;5.93;62.36
70343;BME280;57767;42.068;24.752;2023-04-05T01:47:41;98162.25;;;5.86;62.83
70343;BME280;57767;42.068;24.752;2023-04-05T01:48:43;98188.56;;;5.99;62.74
70343;BME280;57767;42.068;24.752;2023-04-05T01:49:45;98187.56;;;6.00;62.92
70343;BME280;57767;42.068;24.752;2023-04-05T01:50:47;98176.63;;;5.90;62.34
70343;BME280;57767;42.068;24.752;2023-04-05T01:51:49;98181.06;;;5.89;62.70
70343;BME280;57767;42.068;24.752;2023-04-05T01:52:50;98181.06;;;5.89;62.44
70343;BME280;57767;42.068;24.752;2023-04-05T01:53:52;98198.03;;;5.93;62.71
70343;BME280;57767;42.068;24.752;2023-04-05T01:54:54;98191.16;;;5.92;62.53
70343;BME280;57767;42.068;24.752;2023-04-05T01:56:00;98195.41;;;5.93;62.83
70343;BME280;57767;42.068;24.752;2023-04-05T01:57:02;98184.31;;;5.91;62.15
70343;BME280;57767;42.068;24.752;2023-04-05T01:58:04;98197.59;;;5.96;62.69
70343;BME280;57767;42.068;24.752;2023-04-05T01:59:05;98196.00;;;5.95;62.55
70343;BME280;57767;42.068;24.752;2023-04-05T02:00:08;98194.31;;;5.88;62.84
70343;BME280;57767;42.068;24.752;2023-04-05T02:01:11;98195.00;;;5.96;62.54
70343;BME280;57767;42.068;24.752;2023-04-05T02:02:12;98189.53;;;5.91;62.95
70343;BME280;57767;42.068;24.752;2023-04-05T02:03:14;98205.63;;;5.88;62.75
70343;BME280;57767;42.068;24.752;2023-04-05T02:04:16;98200.41;;;5.88;63.18
70343;BME280;57767;42.068;24.752;2023-04-05T02:05:18;98204.38;;;5.84;62.51
70343;BME280;57767;42.068;24.752;2023-04-05T02:06:19;98199.13;;;5.84;62.71
70343;BME280;57767;42.068;24.752;2023-04-05T02:07:21;98199.94;;;5.85;62.87
70343;BME280;57767;42.068;24.752;2023-04-05T02:08:24;98208.25;;;5.88;62.99
70343;BME280;57767;42.068;24.752;2023-04-05T02:09:26;98207.59;;;5.86;62.44
70343;BME280;57767;42.068;24.752;2023-04-05T02:10:28;98205.63;;;5.88;62.43
70343;BME280;57767;42.068;24.752;2023-04-05T02:11:29;98206.00;;;5.85;63.04
70343;BME280;57767;42.068;24.752;2023-04-05T02:12:31;98202.38;;;5.86;63.11
70343;BME280;57767;42.068;24.752;2023-04-05T02:13:33;98205.00;;;5.86;62.93
70343;BME280;57767;42.068;24.752;2023-04-05T02:14:36;98206.00;;;5.85;62.86
70343;BME280;57767;42.068;24.752;2023-04-05T02:15:38;98210.41;;;5.78;63.33
70343;BME280;57767;42.068;24.752;2023-04-05T02:16:40;98206.78;;;5.79;62.67
70343;BME280;57767;42.068;24.752;2023-04-05T02:17:42;98203.34;;;5.79;62.58
70343;BME280;57767;42.068;24.752;2023-04-05T02:18:46;98205.38;;;5.83;62.81
70343;BME280;57767;42.068;24.752;2023-04-05T02:19:51;98185.16;;;5.70;62.69
70343;BME280;57767;42.068;24.752;2023-04-05T02:21:00;98168.94;;;5.54;62.97
70343;BME280;57767;42.068;24.752;2023-04-05T02:22:02;98212.38;;;5.76;62.87
70343;BME280;57767;42.068;24.752;2023-04-05T02:23:04;98205.91;;;5.72;62.79
70343;BME280;57767;42.068;24.752;2023-04-05T02:24:06;98202.06;;;5.68;62.88
70343;BME280;57767;42.068;24.752;2023-04-05T02:25:08;98205.44;;;5.62;62.68
70343;BME280;57767;42.068;24.752;2023-04-05T02:26:10;98206.31;;;5.69;62.84
70343;BME280;57767;42.068;24.752;2023-04-05T02:27:12;98213.97;;;5.70;62.84
70343;BME280;57767;42.068;24.752;2023-04-05T02:28:13;98220.44;;;5.74;62.63
70343;BME280;57767;42.068;24.752;2023-04-05T02:29:15;98214.38;;;5.74;62.93
70343;BME280;57767;42.068;24.752;2023-04-05T02:30:17;98214.19;;;5.75;62.99
70343;BME280;57767;42.068;24.752;2023-04-05T02:31:19;98216.00;;;5.75;62.78
70343;BME280;57767;42.068;24.752;2023-04-05T02:32:21;98206.09;;;5.70;62.39
70343;BME280;57767;42.068;24.752;2023-04-05T02:33:23;98208.72;;;5.70;63.02
70343;BME280;57767;42.068;24.752;2023-04-05T02:34:25;98232.53;;;5.75;62.97
70343;BME280;57767;42.068;24.752;2023-04-05T02:35:27;98209.69;;;5.63;63.28
70343;BME280;57767;42.068;24.752;2023-04-05T02:36:29;98228.88;;;5.70;62.78
70343;BME280;57767;42.068;24.752;2023-04-05T02:37:31;98228.09;;;5.69;62.87
70343;BME280;57767;42.068;24.752;2023-04-05T02:38:32;98222.22;;;5.67;62.65
70343;BME280;57767;42.068;24.752;2023-04-05T02:39:34;98226.47;;;5.68;62.77
70343;BME280;57767;42.068;24.752;2023-04-05T02:40:36;98217.59;;;5.69;62.84
70343;BME280;57767;42.068;24.752;2023-04-05T02:41:42;98206.69;;;5.66;63.09
70343;BME280;57767;42.068;24.752;2023-04-05T02:42:44;98227.66;;;5.66;62.78
70343;BME280;57767;42.068;24.752;2023-04-05T02:43:46;98223.78;;;5.62;63.04
70343;BME280;57767;42.068;24.752;2023-04-05T02:44:48;98226.78;;;5.59;62.88
70343;BME280;57767;42.068;24.752;2023-04-05T02:45:50;98229.03;;;5.62;63.50
70343;BME280;57767;42.068;24.752;2023-04-05T02:46:52;98230.47;;;5.64;62.62
70343;BME280;57767;42.068;24.752;2023-04-05T02:47:53;98221.53;;;5.59;63.70
70343;BME280;57767;42.068;24.752;2023-04-05T02:48:56;98230.41;;;5.58;63.34
70343;BME280;57767;42.068;24.752;2023-04-05T02:49:57;98223.69;;;5.49;62.88
70343;BME280;57767;42.068;24.752;2023-04-05T02:50:59;98236.66;;;5.57;62.82
70343;BME280;57767;42.068;24.752;2023-04-05T02:52:01;98234.88;;;5.64;62.74
70343;BME280;57767;42.068;24.752;2023-04-05T02:53:03;98229.22;;;5.60;62.77
70343;BME280;57767;42.068;24.752;2023-04-05T02:54:05;98243.75;;;5.63;62.24
70343;BME280;57767;42.068;24.752;2023-04-05T02:55:06;98235.25;;;5.61;62.66
70343;BME280;57767;42.068;24.752;2023-04-05T02:56:08;98233.00;;;5.58;63.16
70343;BME280;57767;42.068;24.752;2023-04-05T02:57:10;98239.75;;;5.67;63.18
70343;BME280;57767;42.068;24.752;2023-04-05T02:58:12;98236.50;;;5.65;63.16
70343;BME280;57767;42.068;24.752;2023-04-05T02:59:15;98239.31;;;5.63;63.36
70343;BME280;57767;42.068;24.752;2023-04-05T03:00:18;98237.25;;;5.59;62.32
70343;BME280;57767;42.068;24.752;2023-04-05T03:01:20;98245.53;;;5.62;62.55
70343;BME280;57767;42.068;24.752;2023-04-05T03:02:23;98242.13;;;5.62;61.93
70343;BME280;57767;42.068;24.752;2023-04-05T03:03:25;98236.06;;;5.61;62.22
70343;BME280;57767;42.068;24.752;2023-04-05T03:04:30;98238.50;;;5.63;62.62
70343;BME280;57767;42.068;24.752;2023-04-05T03:05:34;98238.31;;;5.64;62.71
70343;BME280;57767;42.068;24.752;2023-04-05T03:06:37;98238.88;;;5.60;62.32
70343;BME280;57767;42.068;24.752;2023-04-05T03:07:39;98238.25;;;5.58;62.80
70343;BME280;57767;42.068;24.752;2023-04-05T03:08:43;98239.88;;;5.59;62.57
70343;BME280;57767;42.068;24.752;2023-04-05T03:09:45;98238.25;;;5.58;62.55
70343;BME280;57767;42.068;24.752;2023-04-05T03:10:46;98240.50;;;5.61;62.68
70343;BME280;57767;42.068;24.752;2023-04-05T03:11:48;98234.06;;;5.63;62.99
70343;BME280;57767;42.068;24.752;2023-04-05T03:12:51;98228.00;;;5.56;62.26
70343;BME280;57767;42.068;24.752;2023-04-05T03:13:52;98221.13;;;5.55;62.87
70343;BME280;57767;42.068;24.752;2023-04-05T03:14:54;98235.44;;;5.59;62.25
70343;BME280;57767;42.068;24.752;2023-04-05T03:15:56;98243.31;;;5.59;63.04
70343;BME280;57767;42.068;24.752;2023-04-05T03:16:58;98236.03;;;5.55;61.46
70343;BME280;57767;42.068;24.752;2023-04-05T03:18:00;98228.19;;;5.55;61.87
70343;BME280;57767;42.068;24.752;2023-04-05T03:19:01;98242.28;;;5.54;62.11
70343;BME280;57767;42.068;24.752;2023-04-05T03:20:06;98234.78;;;5.51;62.44
70343;BME280;57767;42.068;24.752;2023-04-05T03:21:09;98230.31;;;5.45;61.98
70343;BME280;57767;42.068;24.752;2023-04-05T03:22:12;98242.09;;;5.55;62.03
70343;BME280;57767;42.068;24.752;2023-04-05T03:23:13;98238.03;;;5.53;62.15
70343;BME280;57767;42.068;24.752;2023-04-05T03:24:15;98243.28;;;5.53;62.32
70343;BME280;57767;42.068;24.752;2023-04-05T03:25:17;98235.84;;;5.56;62.34
70343;BME280;57767;42.068;24.752;2023-04-05T03:26:19;98241.84;;;5.50;61.87
70343;BME280;57767;42.068;24.752;2023-04-05T03:27:21;98236.03;;;5.55;61.77
70343;BME280;57767;42.068;24.752;2023-04-05T03:28:23;98230.19;;;5.53;61.86
70343;BME280;57767;42.068;24.752;2023-04-05T03:29:25;98220.06;;;5.50;62.17
70343;BME280;57767;42.068;24.752;2023-04-05T03:30:27;98229.19;;;5.54;62.28
70343;BME280;57767;42.068;24.752;2023-04-05T03:31:29;98237.66;;;5.56;62.33
70343;BME280;57767;42.068;24.752;2023-04-05T03:32:31;98229.00;;;5.55;62.39
70343;BME280;57767;42.068;24.752;2023-04-05T03:33:33;98234.03;;;5.57;61.88
70343;BME280;57767;42.068;24.752;2023-04-05T03:34:34;98236.41;;;5.52;61.83
70343;BME280;57767;42.068;24.752;2023-04-05T03:35:36;98244.75;;;5.62;62.00
70343;BME280;57767;42.068;24.752;2023-04-05T03:36:38;98250.16;;;5.60;61.61
70343;BME280;57767;42.068;24.752;2023-04-05T03:37:43;98228.19;;;5.55;61.83
70343;BME280;57767;42.068;24.752;2023-04-05T03:38:45;98241.13;;;5.63;61.92
70343;BME280;57767;42.068;24.752;2023-04-05T03:39:47;98238.50;;;5.63;61.85
70343;BME280;57767;42.068;24.752;2023-04-05T03:40:49;98235.25;;;5.61;61.24
70343;BME280;57767;42.068;24.752;2023-04-05T03:41:51;98242.13;;;5.62;61.47
70343;BME280;57767;42.068;24.752;2023-04-05T03:42:52;98245.53;;;5.62;60.97
70343;BME280;57767;42.068;24.752;2023-04-05T03:43:54;98246.72;;;5.60;61.88
70343;BME280;57767;42.068;24.752;2023-04-05T03:44:56;98249.53;;;5.58;61.80
70343;BME280;57767;42.068;24.752;2023-04-05T03:45:58;98249.34;;;5.60;61.85
70343;BME280;57767;42.068;24.752;2023-04-05T03:46:59;98238.47;;;5.56;61.86
70343;BME280;57767;42.068;24.752;2023-04-05T03:48:01;98233.97;;;5.50;61.59
70343;BME280;57767;42.068;24.752;2023-04-05T03:49:04;98245.28;;;5.57;61.55
70343;BME280;57767;42.068;24.752;2023-04-05T03:50:07;98248.97;;;5.63;61.75
70343;BME280;57767;42.068;24.752;2023-04-05T03:51:09;98250.75;;;5.56;61.54
70343;BME280;57767;42.068;24.752;2023-04-05T03:52:11;98244.75;;;5.62;60.95
70343;BME280;57767;42.068;24.752;2023-04-05T03:53:13;98247.34;;;5.62;61.76
70343;BME280;57767;42.068;24.752;2023-04-05T03:54:17;98239.31;;;5.63;61.10
70343;BME280;57767;42.068;24.752;2023-04-05T03:55:19;98249.75;;;5.57;61.50
70343;BME280;57767;42.068;24.752;2023-04-05T03:56:21;98242.13;;;5.62;61.21
70343;BME280;57767;42.068;24.752;2023-04-05T03:57:23;98247.72;;;5.59;60.92
70343;BME280;57767;42.068;24.752;2023-04-05T03:58:25;98248.53;;;5.59;61.23
70343;BME280;57767;42.068;24.752;2023-04-05T03:59:27;98246.53;;;5.61;61.52
70343;BME280;57767;42.068;24.752;2023-04-05T04:00:29;98246.78;;;5.66;61.08
70343;BME280;57767;42.068;24.752;2023-04-05T04:01:31;98248.59;;;5.66;61.91
70343;BME280;57767;42.068;24.752;2023-04-05T04:02:32;98250.16;;;5.60;62.06
70343;BME280;57767;42.068;24.752;2023-04-05T04:03:35;98251.78;;;5.61;61.84
70343;BME280;57767;42.068;24.752;2023-04-05T04:04:37;98247.34;;;5.62;61.54
70343;BME280;57767;42.068;24.752;2023-04-05T04:05:39;98252.59;;;5.62;62.48
70343;BME280;57767;42.068;24.752;2023-04-05T04:06:42;98254.66;;;5.66;62.21
70343;BME280;57767;42.068;24.752;2023-04-05T04:07:43;98258.28;;;5.65;61.35
70343;BME280;57767;42.068;24.752;2023-04-05T04:08:45;98248.97;;;5.63;61.32
70343;BME280;57767;42.068;24.752;2023-04-05T04:09:47;98272.16;;;5.66;61.89
70343;BME280;57767;42.068;24.752;2023-04-05T04:10:49;98264.50;;;5.64;61.64
70343;BME280;57767;42.068;24.752;2023-04-05T04:11:51;98258.66;;;5.62;61.26
70343;BME280;57767;42.068;24.752;2023-04-05T04:12:53;98261.44;;;5.61;61.57
70343;BME280;57767;42.068;24.752;2023-04-05T04:13:55;98271.53;;;5.64;61.11
70343;BME280;57767;42.068;24.752;2023-04-05T04:14:56;98261.88;;;5.64;61.73
70343;BME280;57767;42.068;24.752;2023-04-05T04:16:00;98269.56;;;5.66;61.73
70343;BME280;57767;42.068;24.752;2023-04-05T04:17:02;98271.41;;;5.72;61.92
70343;BME280;57767;42.068;24.752;2023-04-05T04:18:03;98261.91;;;5.71;61.28
70343;BME280;57767;42.068;24.752;2023-04-05T04:19:05;98253.66;;;5.67;61.84
70343;BME280;57767;42.068;24.752;2023-04-05T04:20:07;98267.41;;;5.76;61.47
70343;BME280;57767;42.068;24.752;2023-04-05T04:21:12;98264.16;;;5.74;61.98
70343;BME280;57767;42.068;24.752;2023-04-05T04:22:17;98268.59;;;5.73;61.79
70343;BME280;57767;42.068;24.752;2023-04-05T04:23:21;98263.22;;;5.82;62.22
70343;BME280;57767;42.068;24.752;2023-04-05T04:24:23;98263.59;;;5.79;61.86
70343;BME280;57767;42.068;24.752;2023-04-05T04:25:27;98275.06;;;5.78;62.14
70343;BME280;57767;42.068;24.752;2023-04-05T04:26:31;98262.31;;;5.68;62.31
70343;BME280;57767;42.068;24.752;2023-04-05T04:27:40;98278.25;;;5.73;61.60
70343;BME280;57767;42.068;24.752;2023-04-05T04:28:43;98271.22;;;5.73;61.71
70343;BME280;57767;42.068;24.752;2023-04-05T04:29:44;98270.84;;;5.76;61.48
70343;BME280;57767;42.068;24.752;2023-04-05T04:30:47;98279.31;;;5.79;61.59
70343;BME280;57767;42.068;24.752;2023-04-05T04:31:48;98283.75;;;5.78;61.64
70343;BME280;57767;42.068;24.752;2023-04-05T04:32:53;98273.25;;;5.78;61.88
70343;BME280;57767;42.068;24.752;2023-04-05T04:33:56;98276.91;;;5.84;61.82
70343;BME280;57767;42.068;24.752;2023-04-05T04:34:58;98288.38;;;5.83;61.67
70343;BME280;57767;42.068;24.752;2023-04-05T04:36:05;98279.31;;;5.79;61.68
70343;BME280;57767;42.068;24.752;2023-04-05T04:37:07;98289.41;;;5.82;61.44
70343;BME280;57767;42.068;24.752;2023-04-05T04:38:09;98282.75;;;5.79;61.50
70343;BME280;57767;42.068;24.752;2023-04-05T04:39:11;98279.75;;;5.82;61.43
70343;BME280;57767;42.068;24.752;2023-04-05T04:40:14;98281.50;;;5.75;61.91
70343;BME280;57767;42.068;24.752;2023-04-05T04:41:19;98298.69;;;5.84;62.45
70343;BME280;57767;42.068;24.752;2023-04-05T04:42:23;98288.19;;;5.84;61.63
70343;BME280;57767;42.068;24.752;2023-04-05T04:43:26;98293.06;;;5.87;62.46
70343;BME280;57767;42.068;24.752;2023-04-05T04:44:27;98296.34;;;5.89;62.18
70343;BME280;57767;42.068;24.752;2023-04-05T04:45:31;98292.09;;;5.88;62.15
70343;BME280;57767;42.068;24.752;2023-04-05T04:46:38;98299.59;;;5.91;61.77
70343;BME280;57767;42.068;24.752;2023-04-05T04:47:44;98312.69;;;5.91;62.05
70343;BME280;57767;42.068;24.752;2023-04-05T04:48:47;98301.22;;;5.92;62.28
70343;BME280;57767;42.068;24.752;2023-04-05T04:49:49;98311.28;;;5.95;61.92
70343;BME280;57767;42.068;24.752;2023-04-05T04:50:51;98309.28;;;5.97;61.54
70343;BME280;57767;42.068;24.752;2023-04-05T04:51:52;98298.81;;;5.97;60.76
70343;BME280;57767;42.068;24.752;2023-04-05T04:52:54;98309.28;;;5.97;60.94
70343;BME280;57767;42.068;24.752;2023-04-05T04:53:56;98304.66;;;5.99;60.63
70343;BME280;57767;42.068;24.752;2023-04-05T04:54:58;98310.72;;;6.00;60.96
70343;BME280;57767;42.068;24.752;2023-04-05T04:55:59;98310.97;;;6.05;61.04
70343;BME280;57767;42.068;24.752;2023-04-05T04:57:04;98307.75;;;6.09;60.88
70343;BME280;57767;42.068;24.752;2023-04-05T04:58:06;98308.53;;;6.03;60.79
70343;BME280;57767;42.068;24.752;2023-04-05T04:59:10;98308.53;;;6.03;60.59
70343;BME280;57767;42.068;24.752;2023-04-05T05:00:12;98314.78;;;6.02;60.65
70343;BME280;57767;42.068;24.752;2023-04-05T05:01:15;98300.84;;;6.02;60.58
70343;BME280;57767;42.068;24.752;2023-04-05T05:02:17;98308.16;;;6.06;60.42
70343;BME280;57767;42.068;24.752;2023-04-05T05:03:20;98310.38;;;6.09;61.08
70343;BME280;57767;42.068;24.752;2023-04-05T05:04:22;98310.81;;;6.13;60.58
70343;BME280;57767;42.068;24.752;2023-04-05T05:05:24;98312.00;;;6.10;60.83
70343;BME280;57767;42.068;24.752;2023-04-05T05:06:28;98314.63;;;6.10;60.71
70343;BME280;57767;42.068;24.752;2023-04-05T05:07:30;98304.91;;;6.04;61.00
70343;BME280;57767;42.068;24.752;2023-04-05T05:08:32;98318.41;;;6.08;60.22
70343;BME280;57767;42.068;24.752;2023-04-05T05:09:33;98313.00;;;6.09;60.47
70343;BME280;57767;42.068;24.752;2023-04-05T05:10:36;98315.03;;;6.07;60.38
70343;BME280;57767;42.068;24.752;2023-04-05T05:11:38;98300.44;;;5.98;59.77
70343;BME280;57767;42.068;24.752;2023-04-05T05:12:42;98325.50;;;6.07;59.63
70343;BME280;57767;42.068;24.752;2023-04-05T05:13:44;98318.22;;;6.03;60.29
70343;BME280;57767;42.068;24.752;2023-04-05T05:14:51;98308.34;;;6.05;60.21
70343;BME280;57767;42.068;24.752;2023-04-05T05:15:52;98310.09;;;5.98;60.16
70343;BME280;57767;42.068;24.752;2023-04-05T05:16:55;98328.50;;;6.04;60.05
70343;BME280;57767;42.068;24.752;2023-04-05T05:17:59;98327.88;;;6.02;60.74
70343;BME280;57767;42.068;24.752;2023-04-05T05:19:01;98335.19;;;6.07;60.41
70343;BME280;57767;42.068;24.752;2023-04-05T05:20:03;98330.34;;;6.10;60.16
70343;BME280;57767;42.068;24.752;2023-04-05T05:21:10;98311.16;;;6.03;61.16
70343;BME280;57767;42.068;24.752;2023-04-05T05:22:12;98323.09;;;6.13;60.24
70343;BME280;57767;42.068;24.752;2023-04-05T05:23:13;98325.97;;;6.18;60.82
70343;BME280;57767;42.068;24.752;2023-04-05T05:24:16;98322.28;;;6.12;60.50
70343;BME280;57767;42.068;24.752;2023-04-05T05:25:18;98328.41;;;6.19;60.23
70343;BME280;57767;42.068;24.752;2023-04-05T05:26:20;98328.81;;;6.23;60.81
70343;BME280;57767;42.068;24.752;2023-04-05T05:27:23;98329.22;;;6.20;60.73
70343;BME280;57767;42.068;24.752;2023-04-05T05:28:27;98332.41;;;6.22;61.18
70343;BME280;57767;42.068;24.752;2023-04-05T05:29:29;98327.59;;;6.19;59.87
70343;BME280;57767;42.068;24.752;2023-04-05T05:30:32;98334.66;;;6.25;60.51
70343;BME280;57767;42.068;24.752;2023-04-05T05:31:34;98333.09;;;6.30;59.94
70343;BME280;57767;42.068;24.752;2023-04-05T05:32:37;98336.13;;;6.34;60.01
70343;BME280;57767;42.068;24.752;2023-04-05T05:33:41;98339.78;;;6.33;60.58
70343;BME280;57767;42.068;24.752;2023-04-05T05:34:42;98338.38;;;6.37;60.14
70343;BME280;57767;42.068;24.752;2023-04-05T05:35:49;98340.97;;;6.37;60.18
70343;BME280;57767;42.068;24.752;2023-04-05T05:36:53;98350.72;;;6.43;60.90
70343;BME280;57767;42.068;24.752;2023-04-05T05:37:55;98348.72;;;6.45;61.78
70343;BME280;57767;42.068;24.752;2023-04-05T05:38:57;98330.13;;;6.40;60.22
70343;BME280;57767;42.068;24.752;2023-04-05T05:39:59;98345.69;;;6.48;59.70
70343;BME280;57767;42.068;24.752;2023-04-05T05:41:01;98341.66;;;6.45;59.63
70343;BME280;57767;42.068;24.752;2023-04-05T05:42:03;98350.34;;;6.53;60.07
70343;BME280;57767;42.068;24.752;2023-04-05T05:43:04;98342.69;;;6.51;60.42
70343;BME280;57767;42.068;24.752;2023-04-05T05:44:06;98338.00;;;6.46;59.89
70343;BME280;57767;42.068;24.752;2023-04-05T05:45:09;98346.31;;;6.50;60.07